createdAt,value
2023-07-24T00:00:52.666Z,25.1
2023-07-24T00:03:24.066Z,25.1
2023-07-24T00:05:55.068Z,25.1
2023-07-24T00:08:26.806Z,25.1
2023-07-24T00:10:57.827Z,25.1
2023-07-24T00:13:29.695Z,25
2023-07-24T00:16:01.207Z,25.1
2023-07-24T00:18:32.098Z,25.1
2023-07-24T00:21:05.239Z,25.1
2023-07-24T00:23:36.646Z,25.1
2023-07-24T00:26:08.448Z,25.1
2023-07-24T00:28:39.286Z,25
2023-07-24T00:31:11.578Z,25
2023-07-24T00:33:42.435Z,25.1
2023-07-24T00:36:13.911Z,25.1
2023-07-24T00:38:48.544Z,25.1
2023-07-24T00:41:19.676Z,25.1
2023-07-24T00:43:50.905Z,25
2023-07-24T00:46:21.712Z,25
2023-07-24T00:48:52.658Z,25
2023-07-24T00:51:23.723Z,25
2023-07-24T00:53:55.079Z,25.1
2023-07-24T00:56:26.100Z,25.1
2023-07-24T00:58:57.818Z,25
2023-07-24T01:01:29.146Z,25
2023-07-24T01:04:01.990Z,25.1
2023-07-24T01:06:33.309Z,25.1
2023-07-24T01:09:03.927Z,25.1
2023-07-24T01:11:35.127Z,25.1
2023-07-24T01:14:07.427Z,25.1
2023-07-24T01:16:38.495Z,25.1
2023-07-24T01:19:09.659Z,25.1
2023-07-24T01:21:41.118Z,25.1
2023-07-24T01:24:14.259Z,25.1
2023-07-24T01:26:45.555Z,25.1
2023-07-24T01:29:16.738Z,25.1
2023-07-24T01:31:50.108Z,25.1
2023-07-24T01:34:22.493Z,25
2023-07-24T01:36:53.573Z,25
2023-07-24T01:39:24.220Z,25
2023-07-24T01:41:55.884Z,25
2023-07-24T01:44:30.135Z,25
2023-07-24T01:47:01.110Z,25
2023-07-24T01:49:33.942Z,25
2023-07-24T01:52:07.540Z,25
2023-07-24T01:54:39.155Z,25
2023-07-24T01:57:12.829Z,25
2023-07-24T01:59:43.799Z,25
2023-07-24T02:02:15.048Z,24.9
2023-07-24T02:04:46.154Z,24.8
2023-07-24T02:07:21.777Z,24.9
2023-07-24T02:09:53.367Z,24.9
2023-07-24T02:12:24.805Z,24.6
2023-07-24T02:14:56.213Z,24.6
2023-07-24T02:17:36.149Z,24.7
2023-07-24T02:20:06.789Z,24.7
2023-07-24T02:22:38.168Z,24.7
2023-07-24T02:25:09.682Z,24.7
2023-07-24T02:27:40.729Z,24.6
2023-07-24T02:30:14.957Z,24.5
2023-07-24T02:32:46.454Z,24.3
2023-07-24T02:35:17.548Z,24.4
2023-07-24T02:37:48.826Z,24.3
2023-07-24T02:40:20.024Z,24.3
2023-07-24T02:42:51.348Z,23.9
2023-07-24T02:45:22.821Z,23.8
2023-07-24T02:47:53.796Z,23.9
2023-07-24T02:50:25.430Z,24
2023-07-24T02:52:56.611Z,24
2023-07-24T02:55:28.121Z,24.1
2023-07-24T02:58:00.906Z,24
2023-07-24T03:00:32.224Z,23.7
2023-07-24T03:03:02.981Z,23.6
2023-07-24T03:05:34.401Z,23.6
2023-07-24T03:08:06.009Z,23.6
2023-07-24T03:10:37.401Z,23.6
2023-07-24T03:13:10.306Z,23.7
2023-07-24T03:15:41.887Z,23.5
2023-07-24T03:18:13.011Z,23.4
2023-07-24T03:20:47.977Z,23.5
2023-07-24T03:23:19.288Z,23.3
2023-07-24T03:25:50.774Z,23.4
2023-07-24T03:28:22.164Z,23.3
2023-07-24T03:30:52.946Z,23.3
2023-07-24T03:33:24.930Z,23.4
2023-07-24T03:35:55.938Z,23.5
2023-07-24T03:38:27.890Z,23.6
2023-07-24T03:40:59.689Z,23.7
2023-07-24T03:43:31.012Z,23.7
2023-07-24T03:46:02.382Z,23.7
2023-07-24T03:48:33.325Z,23.8
2023-07-24T03:51:05.078Z,23.8
2023-07-24T03:53:37.072Z,23.9
2023-07-24T03:56:08.163Z,23.9
2023-07-24T03:58:39.309Z,23.9
2023-07-24T04:01:10.315Z,24
2023-07-24T04:03:45.408Z,23.9
2023-07-24T04:06:18.270Z,24
2023-07-24T04:08:49.515Z,24
2023-07-24T04:11:20.692Z,24
2023-07-24T04:13:51.889Z,24
2023-07-24T04:16:25.348Z,24
2023-07-24T04:18:55.485Z,24
2023-07-24T04:21:26.903Z,24.1
2023-07-24T04:23:58.350Z,24.1
2023-07-24T04:26:30.242Z,24
2023-07-24T04:29:02.884Z,24.1
2023-07-24T04:31:34.366Z,24.2
2023-07-24T04:34:06.149Z,24.3
2023-07-24T04:36:37.344Z,24.3
2023-07-24T04:39:09.194Z,24.4
2023-07-24T04:41:40.155Z,24.4
2023-07-24T04:44:11.283Z,24.5
2023-07-24T04:46:42.065Z,24.5
2023-07-24T04:49:12.999Z,24.6
2023-07-24T04:51:43.784Z,24.6
2023-07-24T04:54:15.252Z,24.7
2023-07-24T04:56:46.365Z,24.8
2023-07-24T04:59:18.485Z,24.8
2023-07-24T05:01:49.523Z,24.9
2023-07-24T05:04:21.471Z,24.9
2023-07-24T05:06:56.750Z,25
2023-07-24T05:09:27.842Z,25.1
2023-07-24T05:11:58.899Z,25.3
2023-07-24T05:14:30.997Z,25.3
2023-07-24T05:17:02.397Z,25.4
2023-07-24T05:19:33.444Z,25.5
2023-07-24T05:22:04.005Z,25.6
2023-07-24T05:24:36.925Z,25.6
2023-07-24T05:27:09.382Z,25.7
2023-07-24T05:29:38.564Z,25.8
2023-07-24T05:32:09.722Z,25.9
2023-07-24T05:34:42.518Z,26
2023-07-24T05:37:13.401Z,26
2023-07-24T05:39:44.583Z,26.1
2023-07-24T05:42:19.478Z,26.3
2023-07-24T05:44:50.790Z,26.3
2023-07-24T05:47:21.864Z,26.4
2023-07-24T05:49:54.745Z,26.5
2023-07-24T05:52:25.620Z,26.6
2023-07-24T05:54:59.137Z,26.7
2023-07-24T05:57:32.159Z,26.8
2023-07-24T06:00:05.664Z,26.8
2023-07-24T06:02:36.524Z,27
2023-07-24T06:05:09.047Z,27
2023-07-24T06:07:40.236Z,27.2
2023-07-24T06:10:11.172Z,27.3
2023-07-24T06:12:42.070Z,27.3
2023-07-24T06:15:12.858Z,27.5
2023-07-24T06:17:43.897Z,27.6
2023-07-24T06:20:16.082Z,27.7
2023-07-24T06:22:47.277Z,27.8
2023-07-24T06:25:18.017Z,27.8
2023-07-24T06:27:49.277Z,28
2023-07-24T06:30:20.314Z,28.1
2023-07-24T06:32:51.285Z,28
2023-07-24T06:35:24.238Z,28.1
2023-07-24T06:37:56.706Z,28.2
2023-07-24T06:40:27.618Z,28.3
2023-07-24T06:42:59.465Z,28.4
2023-07-24T06:45:30.399Z,28.5
2023-07-24T06:48:01.782Z,28.5
2023-07-24T06:50:32.874Z,28.5
2023-07-24T06:53:04.283Z,28.6
2023-07-24T06:55:35.537Z,28.7
2023-07-24T06:58:06.630Z,28.8
2023-07-24T07:00:42.296Z,28.9
2023-07-24T07:03:14.902Z,29
2023-07-24T07:05:46.000Z,29.1
2023-07-24T07:08:17.180Z,29.1
2023-07-24T07:10:47.993Z,29.1
2023-07-24T07:13:18.679Z,29.2
2023-07-24T07:15:49.619Z,29.2
2023-07-24T07:18:22.191Z,29.3
2023-07-24T07:20:57.648Z,29.4
2023-07-24T07:23:29.110Z,29.4
2023-07-24T07:26:04.248Z,29.6
2023-07-24T07:28:37.674Z,29.7
2023-07-24T07:31:09.748Z,29.7
2023-07-24T07:33:41.204Z,29.8
2023-07-24T07:36:26.372Z,29.9
2023-07-24T07:38:56.613Z,30.1
2023-07-24T07:41:27.431Z,30
2023-07-24T07:43:58.132Z,30
2023-07-24T07:46:35.029Z,30.1
2023-07-24T07:49:09.074Z,30.1
2023-07-24T07:51:40.232Z,30.2
2023-07-24T07:54:11.013Z,30.3
2023-07-24T07:56:41.797Z,30.3
2023-07-24T07:59:12.566Z,30.3
2023-07-24T08:01:43.566Z,30.5
2023-07-24T08:04:15.008Z,30.5
2023-07-24T08:06:45.693Z,30.5
2023-07-24T08:09:16.528Z,30.6
2023-07-24T08:11:47.453Z,30.6
2023-07-24T08:14:18.179Z,30.6
2023-07-24T08:16:49.481Z,30.7
2023-07-24T08:19:20.496Z,30.8
2023-07-24T08:21:53.200Z,30.9
2023-07-24T08:24:24.401Z,31
2023-07-24T08:26:55.369Z,31
2023-07-24T08:29:28.858Z,31.1
2023-07-24T08:32:00.280Z,31.1
2023-07-24T08:34:30.431Z,31.2
2023-07-24T08:37:01.426Z,31.2
2023-07-24T08:39:32.060Z,31.2
2023-07-24T08:42:04.835Z,31.3
2023-07-24T08:44:38.297Z,31.3
2023-07-24T08:47:08.995Z,31.3
2023-07-24T08:49:39.932Z,31.3
2023-07-24T08:52:12.541Z,31.5
2023-07-24T08:54:41.177Z,31.5
2023-07-24T08:57:12.366Z,31.5
2023-07-24T08:59:43.368Z,31.5
2023-07-24T09:02:14.238Z,31.6
2023-07-24T09:04:45.559Z,31.6
2023-07-24T09:07:18.146Z,31.7
2023-07-24T09:09:48.795Z,31.8
2023-07-24T09:12:21.030Z,31.9
2023-07-24T09:14:52.062Z,31.9
2023-07-24T09:17:22.973Z,32
2023-07-24T09:19:54.753Z,32
2023-07-24T09:22:25.251Z,32
2023-07-24T09:24:57.765Z,32
2023-07-24T09:27:28.496Z,32.1
2023-07-24T09:29:59.256Z,32.1
2023-07-24T09:32:32.291Z,32.2
2023-07-24T09:35:04.807Z,32.3
2023-07-24T09:37:34.162Z,32.3
2023-07-24T09:40:07.398Z,32.4
2023-07-24T09:42:48.751Z,32.4
2023-07-24T09:45:09.765Z,32.5
2023-07-24T09:50:11.780Z,32.5
2023-07-24T09:52:42.179Z,32.6
2023-07-24T09:55:12.884Z,32.6
2023-07-24T09:57:43.707Z,32.6
2023-07-24T10:00:14.850Z,32.7
2023-07-24T10:02:45.232Z,32.7
2023-07-24T10:05:21.822Z,32.8
2023-07-24T10:07:52.169Z,32.9
2023-07-24T10:10:22.610Z,32.8
2023-07-24T10:12:53.713Z,32.9
2023-07-24T10:15:24.285Z,32.9
2023-07-24T10:17:55.260Z,32.9
2023-07-24T10:20:25.810Z,32.9
2023-07-24T10:22:57.547Z,33
2023-07-24T10:25:29.160Z,33
2023-07-24T10:28:03.444Z,33.1
2023-07-24T10:30:34.919Z,33.2
2023-07-24T10:33:10.936Z,33.2
2023-07-24T10:35:42.742Z,33.3
2023-07-24T10:38:13.845Z,33.2
2023-07-24T10:40:45.496Z,33.3
2023-07-24T10:43:16.305Z,33.2
2023-07-24T10:45:46.726Z,33.3
2023-07-24T10:48:16.927Z,33.3
2023-07-24T10:50:47.810Z,33.3
2023-07-24T10:53:16.408Z,33.3
2023-07-24T10:55:46.733Z,33.4
2023-07-24T10:58:18.282Z,33.5
2023-07-24T11:00:49.216Z,33.5
2023-07-24T11:03:20.352Z,33.4
2023-07-24T11:05:55.063Z,33.4
2023-07-24T11:08:25.230Z,33.5
2023-07-24T11:10:56.031Z,33.4
2023-07-24T11:13:30.877Z,33.4
2023-07-24T11:16:04.667Z,33.6
2023-07-24T11:18:48.392Z,33.6
2023-07-24T11:21:07.183Z,33.7
2023-07-24T11:23:38.845Z,33.7
2023-07-24T11:26:09.221Z,33.7
2023-07-24T11:28:40.014Z,33.8
2023-07-24T11:31:10.554Z,33.8
2023-07-24T11:33:41.004Z,33.9
2023-07-24T11:36:14.131Z,33.9
2023-07-24T11:38:44.764Z,33.9
2023-07-24T11:41:15.768Z,33.9
2023-07-24T11:43:46.315Z,33.9
2023-07-24T11:46:18.004Z,33.8
2023-07-24T11:48:51.535Z,33.9
2023-07-24T11:51:24.065Z,34
2023-07-24T11:53:58.604Z,34
2023-07-24T11:56:30.370Z,34.1
2023-07-24T11:59:02.231Z,34.1
2023-07-24T12:01:32.848Z,34.1
2023-07-24T12:04:04.545Z,34.1
2023-07-24T12:06:37.032Z,34.1
2023-07-24T12:09:07.342Z,34.1
2023-07-24T12:11:46.248Z,34.2
2023-07-24T12:14:15.913Z,34.2
2023-07-24T12:16:47.575Z,34.1
2023-07-24T12:19:18.817Z,34.2
2023-07-24T12:21:48.336Z,34.3
2023-07-24T12:24:18.654Z,34.4
2023-07-24T12:26:50.154Z,34.4
2023-07-24T12:29:21.403Z,34.4
2023-07-24T12:31:52.157Z,34.4
2023-07-24T12:34:22.599Z,34.6
2023-07-24T12:36:54.572Z,34.6
2023-07-24T12:39:25.321Z,34.6
2023-07-24T12:41:58.627Z,34.7
2023-07-24T12:44:32.507Z,34.8
2023-07-24T12:47:03.040Z,34.9
2023-07-24T12:49:33.940Z,35
2023-07-24T12:52:05.619Z,34.9
2023-07-24T12:54:46.636Z,34.9
2023-07-24T12:57:10.851Z,35
2023-07-24T12:59:41.457Z,35.1
2023-07-24T13:02:19.571Z,35.2
2023-07-24T13:04:54.104Z,35.3
2023-07-24T13:07:24.974Z,35.4
2023-07-24T13:09:55.635Z,35.3
2023-07-24T13:12:26.084Z,35.3
2023-07-24T13:14:57.318Z,35.5
2023-07-24T13:17:27.921Z,35.5
2023-07-24T13:19:58.824Z,35.5
2023-07-24T13:22:29.298Z,35.6
2023-07-24T13:25:01.314Z,35.7
2023-07-24T13:27:30.744Z,35.6
2023-07-24T13:30:01.004Z,35.8
2023-07-24T13:32:31.587Z,35.7
2023-07-24T13:35:02.441Z,35.7
2023-07-24T13:37:34.183Z,35.7
2023-07-24T13:40:05.206Z,35.7
2023-07-24T13:42:35.662Z,35.8
2023-07-24T13:45:06.684Z,35.7
2023-07-24T13:47:37.406Z,35.7
2023-07-24T13:50:08.277Z,35.5
2023-07-24T13:52:39.381Z,35.5
2023-07-24T13:55:12.683Z,35.5
2023-07-24T13:57:44.370Z,35.4
2023-07-24T14:00:15.638Z,35.4
2023-07-24T14:02:44.639Z,35.3
2023-07-24T14:05:15.255Z,35.3
2023-07-24T14:07:46.099Z,35.2
2023-07-24T14:10:19.066Z,35.2
2023-07-24T14:12:49.583Z,35.2
2023-07-24T14:15:24.772Z,35.2
2023-07-24T14:17:55.671Z,35.1
2023-07-24T14:20:26.511Z,35.1
2023-07-24T14:22:57.333Z,35
2023-07-24T14:25:27.968Z,34.8
2023-07-24T14:27:57.917Z,34.7
2023-07-24T14:30:29.322Z,34.6
2023-07-24T14:33:01.370Z,34.6
2023-07-24T14:35:32.133Z,34.6
2023-07-24T14:38:04.949Z,34.5
2023-07-24T14:40:37.394Z,34.4
2023-07-24T14:43:08.992Z,34.4
2023-07-24T14:45:39.768Z,34.3
2023-07-24T14:48:11.146Z,34.1
2023-07-24T14:50:44.279Z,34.1
2023-07-24T14:53:18.922Z,34
2023-07-24T14:55:49.666Z,34
2023-07-24T14:58:20.327Z,34
2023-07-24T15:03:21.815Z,33.9
2023-07-24T15:06:01.936Z,33.8
2023-07-24T15:08:32.826Z,33.8
2023-07-24T15:11:03.886Z,33.8
2023-07-24T15:13:37.459Z,33.8
2023-07-24T15:16:11.143Z,33.8
2023-07-24T15:18:41.392Z,33.7
2023-07-24T15:21:12.392Z,33.7
2023-07-24T15:23:45.492Z,33.7
2023-07-24T15:26:16.356Z,33.7
2023-07-24T15:28:48.093Z,33.7
2023-07-24T15:31:18.931Z,33.7
2023-07-24T15:33:49.776Z,33.6
2023-07-24T15:36:20.379Z,33.7
2023-07-24T15:38:51.389Z,33.7
2023-07-24T15:41:21.657Z,33.6
2023-07-24T15:43:52.486Z,33.6
2023-07-24T15:46:23.525Z,33.6
2023-07-24T15:48:52.418Z,33.6
2023-07-24T15:51:24.119Z,33.6
2023-07-24T15:53:55.449Z,33.6
2023-07-24T15:56:27.123Z,33.6
2023-07-24T15:59:01.424Z,33.6
2023-07-24T16:01:33.039Z,33.5
2023-07-24T16:04:03.345Z,33.3
2023-07-24T16:06:33.964Z,33.4
2023-07-24T16:09:04.801Z,33.3
2023-07-24T16:11:46.887Z,33.4
2023-07-24T16:14:15.322Z,33.4
2023-07-24T16:16:46.522Z,33.4
2023-07-24T16:19:17.667Z,33.4
2023-07-24T16:21:52.769Z,33.4
2023-07-24T16:24:33.899Z,33.4
2023-07-24T16:27:04.283Z,33.4
2023-07-24T16:29:39.315Z,33.3
2023-07-24T16:32:09.805Z,33.3
2023-07-24T16:34:42.200Z,33.1
2023-07-24T16:37:12.362Z,33
2023-07-24T16:39:43.436Z,33
2023-07-24T16:42:14.319Z,33
2023-07-24T16:44:58.821Z,33
2023-07-24T16:47:20.387Z,32.9
2023-07-24T16:49:50.806Z,32.9
2023-07-24T16:52:21.555Z,32.8
2023-07-24T16:54:52.490Z,32.8
2023-07-24T16:57:23.854Z,32.7
2023-07-24T16:59:55.671Z,32.7
2023-07-24T17:02:27.417Z,32.7
2023-07-24T17:04:59.575Z,32.6
2023-07-24T17:07:31.314Z,32.7
2023-07-24T17:10:02.930Z,32.6
2023-07-24T17:12:33.825Z,32.5
2023-07-24T17:15:04.216Z,32.5
2023-07-24T17:17:36.370Z,32.5
2023-07-24T17:20:10.840Z,32.5
2023-07-24T17:22:42.968Z,32.4
2023-07-24T17:25:15.058Z,32.4
2023-07-24T17:27:45.635Z,32.3
2023-07-24T17:30:17.490Z,32.3
2023-07-24T17:32:48.276Z,32.2
2023-07-24T17:35:18.974Z,32.2
2023-07-24T17:37:49.634Z,32.2
2023-07-24T17:40:20.867Z,32.1
2023-07-24T17:42:53.450Z,32.2
2023-07-24T17:45:24.849Z,32.1
2023-07-24T17:48:00.480Z,32.1
2023-07-24T17:50:30.522Z,32
2023-07-24T17:53:03.097Z,31.9
2023-07-24T17:55:34.079Z,31.9
2023-07-24T17:58:05.126Z,31.8
2023-07-24T18:00:34.446Z,31.9
2023-07-24T18:03:06.181Z,31.9
2023-07-24T18:05:36.074Z,31.7
2023-07-24T18:08:07.333Z,31.7
2023-07-24T18:10:38.187Z,31.7
2023-07-24T18:13:08.576Z,31.5
2023-07-24T18:15:37.196Z,31.6
2023-07-24T18:18:08.878Z,31.4
2023-07-24T18:20:39.982Z,31.4
2023-07-24T18:23:10.285Z,31.4
2023-07-24T18:25:40.832Z,31.4
2023-07-24T18:28:11.437Z,31.2
2023-07-24T18:30:42.151Z,31.2
2023-07-24T18:33:20.268Z,31.1
2023-07-24T18:35:55.061Z,31.1
2023-07-24T18:38:27.333Z,31
2023-07-24T18:41:00.529Z,31
2023-07-24T18:43:38.456Z,31
2023-07-24T18:46:09.243Z,30.9
2023-07-24T18:48:40.661Z,30.9
2023-07-24T18:51:10.051Z,30.9
2023-07-24T18:53:43.661Z,30.9
2023-07-24T18:56:14.137Z,30.8
2023-07-24T18:58:46.083Z,30.8
2023-07-24T19:01:16.883Z,30.6
2023-07-24T19:03:45.850Z,30.7
2023-07-24T19:06:17.830Z,30.7
2023-07-24T19:08:46.855Z,30.7
2023-07-24T19:11:18.274Z,30.6
2023-07-24T19:13:49.185Z,30.5
2023-07-24T19:16:19.989Z,30.4
2023-07-24T19:18:50.774Z,30.3
2023-07-24T19:21:21.172Z,30.4
2023-07-24T19:23:51.639Z,30.3
2023-07-24T19:26:22.295Z,30.2
2023-07-24T19:28:52.793Z,30.3
2023-07-24T19:31:21.948Z,30.3
2023-07-24T19:33:52.755Z,30.2
2023-07-24T19:36:23.018Z,30.2
2023-07-24T19:38:53.709Z,30.2
2023-07-24T19:41:24.261Z,30.2
2023-07-24T19:43:55.627Z,30.2
2023-07-24T19:46:26.636Z,30.2
2023-07-24T19:48:57.293Z,30.1
2023-07-24T19:51:27.102Z,29.9
2023-07-24T19:53:57.654Z,30.1
2023-07-24T19:56:28.873Z,30
2023-07-24T19:59:00.252Z,30
2023-07-24T20:01:31.711Z,30
2023-07-24T20:04:03.951Z,29.9
2023-07-24T20:06:35.581Z,29.8
2023-07-24T20:09:06.059Z,29.7
2023-07-24T20:11:38.383Z,29.6
2023-07-24T20:14:08.769Z,29.6
2023-07-24T20:16:43.581Z,29.6
2023-07-24T20:19:15.165Z,29.6
2023-07-24T20:21:45.939Z,29.5
2023-07-24T20:24:17.791Z,29.5
2023-07-24T20:26:48.817Z,29.5
2023-07-24T20:29:19.889Z,29.5
2023-07-24T20:31:50.768Z,29.5
2023-07-24T20:34:22.178Z,29.5
2023-07-24T20:36:52.640Z,29.4
2023-07-24T20:39:25.665Z,29.4
2023-07-24T20:41:56.365Z,29.4
2023-07-24T20:44:32.509Z,29.3
2023-07-24T20:47:06.404Z,29.4
2023-07-24T20:49:36.900Z,29.4
2023-07-24T20:52:08.444Z,29.3
2023-07-24T20:54:39.705Z,29.2
2023-07-24T20:57:14.152Z,29.1
2023-07-24T20:59:46.888Z,29
2023-07-24T21:02:18.884Z,29.1
2023-07-24T21:04:49.631Z,29
2023-07-24T21:07:22.507Z,28.8
2023-07-24T21:09:53.101Z,28.9
2023-07-24T21:12:24.181Z,28.8
2023-07-24T21:14:59.067Z,28.9
2023-07-24T21:17:34.210Z,28.9
2023-07-24T21:20:13.686Z,28.9
2023-07-24T21:22:44.997Z,28.9
2023-07-24T21:25:15.780Z,28.9
2023-07-24T21:27:50.848Z,28.8
2023-07-24T21:30:30.055Z,28.9
2023-07-24T21:33:01.678Z,28.9
2023-07-24T21:35:32.453Z,28.9
2023-07-24T21:38:07.329Z,28.9
2023-07-24T21:40:42.764Z,28.8
2023-07-24T21:43:13.605Z,28.8
2023-07-24T21:45:44.138Z,28.7
2023-07-24T21:48:16.198Z,28.7
2023-07-24T21:50:46.794Z,28.7
2023-07-24T21:53:19.554Z,28.7
2023-07-24T21:55:56.389Z,28.6
2023-07-24T21:58:27.125Z,28.5
2023-07-24T22:00:59.690Z,28.6
2023-07-24T22:03:32.894Z,28.7
2023-07-24T22:06:06.159Z,28.7
2023-07-24T22:08:33.388Z,28.6
2023-07-24T22:11:07.820Z,28.7
2023-07-24T22:13:38.520Z,28.7
2023-07-24T22:16:09.964Z,28.6
2023-07-24T22:18:40.678Z,28.6
2023-07-24T22:21:11.369Z,28.6
2023-07-24T22:23:42.718Z,28.6
2023-07-24T22:26:13.984Z,28.5
2023-07-24T22:28:44.999Z,28.6
2023-07-24T22:31:16.075Z,28.6
2023-07-24T22:33:46.763Z,28.6
2023-07-24T22:36:17.691Z,28.5
2023-07-24T22:38:48.329Z,28.6
2023-07-24T22:41:18.876Z,28.5
2023-07-24T22:43:50.182Z,28.5
2023-07-24T22:46:21.541Z,28.6
2023-07-24T22:48:52.365Z,28.6
2023-07-24T22:51:23.289Z,28.7
2023-07-24T22:53:56.285Z,28.6
2023-07-24T22:56:26.828Z,28.6
2023-07-24T22:58:58.033Z,28.6
2023-07-24T23:01:30.106Z,28.6
2023-07-24T23:04:00.980Z,28.6
2023-07-24T23:06:31.679Z,28.6
2023-07-24T23:09:02.302Z,28.6
2023-07-24T23:11:33.592Z,28.6
2023-07-24T23:14:03.842Z,28.7
2023-07-24T23:16:35.396Z,28.7
2023-07-24T23:19:05.739Z,28.7
2023-07-24T23:21:36.560Z,28.6
2023-07-24T23:24:06.045Z,28.7
2023-07-24T23:26:36.990Z,28.6
2023-07-24T23:29:07.945Z,28.6
2023-07-24T23:31:38.683Z,28.5
2023-07-24T23:34:10.934Z,28.5
2023-07-24T23:36:42.005Z,28.5
2023-07-24T23:39:13.114Z,28.5
2023-07-24T23:41:43.729Z,28.5
2023-07-24T23:44:15.771Z,28.5
2023-07-24T23:46:46.929Z,28.5
2023-07-24T23:49:16.424Z,28.6
2023-07-24T23:51:47.392Z,28.5
2023-07-24T23:54:16.605Z,28.5
2023-07-24T23:56:47.326Z,28.5
2023-07-24T23:59:18.437Z,28.5
